Time;durP1;ratioP1;P1;durP2;ratioP2;P2;SDS_P1;SDS_P2;PMS_P1;PMS_P2;Temp;Humidity;BMP_temperature;BMP_pressure;BME280_temperature;BME280_humidity;BME280_pressure;Samples;Min_cycle;Max_cycle;Signal;HPM_P1;HPM_P2
2023/08/16 00:01:55;;;;;;;7.47;4.20;;;;;;;-142.75;100.00;76625.41;5026607;28;20540;-63
2023/08/16 00:04:20;;;;;;;8.02;3.90;;;;;;;-142.75;100.00;76629.34;5025994;28;20703;-63
2023/08/16 00:06:45;;;;;;;6.45;4.07;;;;;;;-142.75;100.00;76639.19;5026497;28;20033;-63
2023/08/16 00:09:11;;;;;;;8.02;4.50;;;;;;;-142.75;100.00;76645.09;5024911;28;20200;-63
2023/08/16 00:11:36;;;;;;;6.45;4.65;;;;;;;-142.75;100.00;76641.16;5027279;28;20026;-63
2023/08/16 00:14:02;;;;;;;6.68;4.13;;;;;;;-142.75;100.00;76633.28;5026219;28;20509;-63
2023/08/16 00:16:28;;;;;;;5.65;3.80;;;;;;;-142.75;100.00;76625.41;5026823;28;20025;-63
2023/08/16 00:18:53;;;;;;;5.90;3.95;;;;;;;-142.75;100.00;76625.41;5025649;28;20402;-64
2023/08/16 00:21:18;;;;;;;8.00;4.28;;;;;;;-142.75;100.00;76633.28;5026107;28;20070;-64
2023/08/16 00:23:44;;;;;;;8.13;4.38;;;;;;;-142.75;100.00;76633.28;5024517;28;20068;-64
2023/08/16 00:26:09;;;;;;;8.27;5.22;;;;;;;-142.75;100.00;76643.13;5025229;28;20049;-63
2023/08/16 00:28:34;;;;;;;8.75;4.85;;;;;;;-142.75;100.00;76649.03;5025185;28;20120;-64
2023/08/16 00:30:59;;;;;;;8.88;5.30;;;;;;;-142.75;100.00;76641.16;5026378;28;20048;-64
2023/08/16 00:33:25;;;;;;;9.80;5.60;;;;;;;-142.75;100.00;76627.38;5026199;28;20029;-64
2023/08/16 00:35:52;;;;;;;11.40;5.75;;;;;;;-142.75;100.00;76613.59;5025904;28;20036;-63
2023/08/16 00:38:18;;;;;;;8.43;5.20;;;;;;;-142.75;100.00;76611.63;5025881;28;20162;-63
2023/08/16 00:40:50;;;;;;;10.60;5.50;;;;;;;-142.75;100.00;76613.59;5026428;28;20025;-63
2023/08/16 00:43:17;;;;;;;10.05;5.00;;;;;;;-142.75;100.00;76623.44;5024508;28;20029;-64
2023/08/16 00:45:44;;;;;;;8.43;4.38;;;;;;;-142.75;100.00;76645.09;5024484;28;20029;-64
2023/08/16 00:48:10;;;;;;;8.20;4.53;;;;;;;-142.75;100.00;76647.06;5025937;28;20033;-63
2023/08/16 00:50:35;;;;;;;9.32;4.68;;;;;;;-142.75;100.00;76645.09;5026021;28;20420;-63
2023/08/16 00:53:01;;;;;;;7.65;4.80;;;;;;;-142.75;100.00;76643.13;5025356;28;20014;-63
2023/08/16 00:55:26;;;;;;;8.18;4.57;;;;;;;-142.75;100.00;76647.06;5025486;28;20104;-63
2023/08/16 00:57:52;;;;;;;7.72;4.78;;;;;;;-142.75;100.00;76658.88;5026015;28;20029;-63
2023/08/16 01:00:18;;;;;;;9.45;5.40;;;;;;;-142.75;100.00;76658.88;5024155;28;20032;-63
2023/08/16 01:02:44;;;;;;;12.73;5.13;;;;;;;-142.75;100.00;76662.81;5025156;28;20018;-63
2023/08/16 01:05:09;;;;;;;10.45;5.85;;;;;;;-142.75;100.00;76660.84;5025750;28;20489;-63
2023/08/16 01:07:34;;;;;;;10.80;6.03;;;;;;;-142.75;100.00;76647.06;5025630;28;20035;-63
2023/08/16 01:10:00;;;;;;;13.15;6.15;;;;;;;-142.75;100.00;76649.03;5025847;28;20609;-63
2023/08/16 01:12:43;;;;;;;9.57;6.45;;;;;;;-142.75;100.00;76643.13;5023597;28;20049;-63
2023/08/16 01:15:18;;;;;;;12.45;6.03;;;;;;;-142.75;100.00;76645.09;5025383;28;20033;-64
2023/08/16 01:17:44;;;;;;;10.02;5.68;;;;;;;-142.75;100.00;76651.00;5025486;28;20031;-63
2023/08/16 01:20:10;;;;;;;10.27;5.80;;;;;;;-142.75;100.00;76654.94;5025946;28;20025;-63
2023/08/16 01:22:54;;;;;;;10.60;5.95;;;;;;;-142.75;100.00;76668.72;5025160;28;20060;-63
2023/08/16 01:25:35;;;;;;;9.93;6.03;;;;;;;-142.75;100.00;76672.66;5025072;28;20032;-64
2023/08/16 01:28:01;;;;;;;9.13;5.82;;;;;;;-142.75;100.00;76680.53;5025224;28;20488;-63
2023/08/16 01:30:28;;;;;;;10.73;6.07;;;;;;;-142.75;100.00;76680.53;5025011;28;20036;-63
2023/08/16 01:32:53;;;;;;;10.77;6.07;;;;;;;-142.75;100.00;76684.47;5024967;28;20021;-64
2023/08/16 01:35:21;;;;;;;13.20;6.47;;;;;;;-142.75;100.00;76688.41;5024577;28;20017;-64
2023/08/16 01:37:46;;;;;;;12.10;6.28;;;;;;;-142.75;100.00;76700.22;5024661;28;20025;-64
2023/08/16 01:40:12;;;;;;;10.05;5.78;;;;;;;-142.75;100.00;76708.09;5025032;28;20080;-63
2023/08/16 01:42:47;;;;;;;8.02;5.20;;;;;;;-142.75;100.00;76704.16;5024895;28;20109;-64
2023/08/16 01:45:15;;;;;;;6.80;4.97;;;;;;;-142.75;100.00;76712.03;5024792;28;20064;-64
2023/08/16 01:47:42;;;;;;;10.15;5.45;;;;;;;-142.75;100.00;76715.97;5025386;28;20021;-64
2023/08/16 01:50:08;;;;;;;8.73;5.43;;;;;;;-142.75;100.00;76719.91;5025874;28;20028;-64
2023/08/16 01:52:34;;;;;;;9.77;6.00;;;;;;;-142.75;100.00;76717.94;5024499;28;20026;-63
2023/08/16 01:54:59;;;;;;;9.85;5.78;;;;;;;-142.75;100.00;76721.88;5024953;28;20555;-63
2023/08/16 01:57:24;;;;;;;8.88;5.78;;;;;;;-142.75;100.00;76727.78;5024648;28;20469;-63
2023/08/16 01:59:50;;;;;;;11.20;4.97;;;;;;;-142.75;100.00;76735.66;5023228;28;20030;-63
2023/08/16 02:02:15;;;;;;;9.27;5.45;;;;;;;-142.75;100.00;76731.72;5024766;28;20025;-64
2023/08/16 02:04:40;;;;;;;10.90;5.28;;;;;;;-142.75;100.00;76751.41;5024126;28;20562;-63
2023/08/16 02:07:06;;;;;;;10.32;5.30;;;;;;;-142.75;100.00;76757.31;5023027;28;20642;-64
2023/08/16 02:09:31;;;;;;;8.32;5.38;;;;;;;-142.75;100.00;76761.25;5024171;28;20033;-64
2023/08/16 02:11:56;;;;;;;8.43;5.32;;;;;;;-142.75;100.00;76763.22;5025079;28;20048;-63
2023/08/16 02:14:22;;;;;;;13.05;5.18;;;;;;;-142.75;100.00;76761.25;5023458;28;20041;-63
2023/08/16 02:16:47;;;;;;;8.63;4.80;;;;;;;-142.75;100.00;76767.16;5023902;28;20033;-63
2023/08/16 02:19:12;;;;;;;6.18;4.50;;;;;;;-142.75;100.00;76773.06;5045002;28;20025;-63
2023/08/16 02:21:38;;;;;;;6.60;4.50;;;;;;;-142.75;100.00;76775.03;5044268;28;20021;-64
2023/08/16 02:24:03;;;;;;;9.18;4.97;;;;;;;-142.75;100.00;76771.09;5043981;28;20029;-63
2023/08/16 02:26:29;;;;;;;7.78;4.68;;;;;;;-142.75;100.00;76777.00;5044197;28;20036;-64
2023/08/16 02:28:54;;;;;;;7.55;4.15;;;;;;;-142.75;100.00;76790.78;5044287;28;20102;-64
2023/08/16 02:31:19;;;;;;;4.60;3.13;;;;;;;-142.75;100.00;76790.78;5044291;28;20067;-63
2023/08/16 02:33:45;;;;;;;4.47;2.40;;;;;;;-142.75;100.00;76802.56;5043938;28;20083;-63
2023/08/16 02:36:10;;;;;;;3.25;2.08;;;;;;;-142.75;100.00;76810.44;5044249;28;20025;-64
2023/08/16 02:38:35;;;;;;;6.32;2.40;;;;;;;-142.75;100.00;76820.28;5044010;28;20468;-64
2023/08/16 02:41:01;;;;;;;6.50;3.67;;;;;;;-142.75;100.00;76826.19;5044291;28;20025;-63
2023/08/16 02:43:26;;;;;;;6.35;3.95;;;;;;;-142.75;100.00;76818.31;5026858;28;20044;-63
2023/08/16 02:45:52;;;;;;;7.43;5.18;;;;;;;-142.75;100.00;76814.38;5024312;28;20120;-64
2023/08/16 02:48:18;;;;;;;7.10;4.72;;;;;;;-142.75;100.00;76806.50;5024647;28;20033;-63
2023/08/16 02:50:44;;;;;;;7.05;4.88;;;;;;;-142.75;100.00;76798.66;5029022;28;20507;-63
2023/08/16 02:53:09;;;;;;;8.50;5.22;;;;;;;-142.75;100.00;76790.78;5027894;28;20022;-64
2023/08/16 02:55:35;;;;;;;7.20;5.30;;;;;;;-142.75;100.00;76780.94;5027843;28;20404;-64
2023/08/16 02:58:00;;;;;;;7.18;4.72;;;;;;;-142.75;100.00;76786.84;5028018;28;20021;-64
2023/08/16 03:00:25;;;;;;;6.15;4.25;;;;;;;-142.75;100.00;76786.84;5028015;28;20104;-63
2023/08/16 03:02:50;;;;;;;5.32;3.55;;;;;;;-142.75;100.00;76796.69;5026330;28;20519;-63
2023/08/16 03:05:16;;;;;;;6.90;4.53;;;;;;;-142.75;100.00;76804.53;5028072;28;20025;-64
2023/08/16 03:07:41;;;;;;;9.73;5.20;;;;;;;-142.75;100.00;76822.25;5027707;28;20029;-63
2023/08/16 03:10:07;;;;;;;6.55;4.07;;;;;;;-142.75;100.00;76822.25;5027508;28;20021;-63
2023/08/16 03:12:32;;;;;;;7.82;4.95;;;;;;;-142.75;100.00;76824.22;5027557;28;20029;-63
2023/08/16 03:14:58;;;;;;;7.40;5.07;;;;;;;-142.75;100.00;76824.22;5027527;28;20100;-64
2023/08/16 03:17:24;;;;;;;7.65;4.75;;;;;;;-142.75;100.00;76830.13;5027523;28;20032;-63
2023/08/16 03:19:49;;;;;;;7.95;5.28;;;;;;;-142.75;100.00;76834.06;5028082;28;20022;-63
2023/08/16 03:22:14;;;;;;;13.00;6.43;;;;;;;-142.75;100.00;76836.03;5027027;28;20373;-63
2023/08/16 03:24:40;;;;;;;12.05;7.55;;;;;;;-142.75;100.00;76834.06;5027039;28;20073;-64
2023/08/16 03:27:05;;;;;;;9.98;6.47;;;;;;;-142.75;100.00;76818.31;5027614;28;20059;-64
2023/08/16 03:29:30;;;;;;;13.77;7.85;;;;;;;-142.75;100.00;76826.19;5027492;28;20038;-63
2023/08/16 03:31:56;;;;;;;18.33;7.38;;;;;;;-142.75;100.00;76828.16;5027495;28;20017;-64
2023/08/16 03:34:22;;;;;;;10.25;6.55;;;;;;;-142.75;100.00;76836.03;5027101;28;20485;-63
2023/08/16 03:36:47;;;;;;;8.15;5.82;;;;;;;-142.75;100.00;76838.00;5026955;28;20055;-63
2023/08/16 03:39:13;;;;;;;8.52;5.97;;;;;;;-142.75;100.00;76849.81;5026803;28;20420;-63
2023/08/16 03:41:38;;;;;;;10.82;5.45;;;;;;;-142.75;100.00;76843.91;5027183;28;20114;-63
2023/08/16 03:44:06;;;;;;;9.90;5.50;;;;;;;-142.75;100.00;76857.69;5026639;28;20100;-63
2023/08/16 03:46:31;;;;;;;10.82;5.05;;;;;;;-142.75;100.00;76861.63;5026679;28;20045;-63
2023/08/16 03:48:56;;;;;;;10.93;5.80;;;;;;;-142.75;100.00;76863.59;5027031;28;20017;-64
2023/08/16 03:51:22;;;;;;;11.13;6.93;;;;;;;-142.75;100.00;76861.63;5026094;28;20021;-63
2023/08/16 03:53:47;;;;;;;11.05;7.32;;;;;;;-142.75;100.00;76865.56;5026652;28;20063;-63
2023/08/16 03:56:13;;;;;;;11.48;6.82;;;;;;;-142.75;100.00;76869.50;5026642;28;20498;-63
2023/08/16 03:58:38;;;;;;;10.35;7.07;;;;;;;-142.75;100.00;76869.50;5026562;28;20064;-64
2023/08/16 04:01:03;;;;;;;13.20;7.80;;;;;;;-142.75;100.00;76867.53;5027034;28;20021;-63
2023/08/16 04:03:29;;;;;;;11.23;7.43;;;;;;;-142.75;100.00;76863.59;5026692;28;20029;-63
2023/08/16 04:05:54;;;;;;;12.07;7.82;;;;;;;-142.75;100.00;76865.56;5026448;28;20029;-64
2023/08/16 04:08:19;;;;;;;11.98;7.03;;;;;;;-142.75;100.00;76869.50;5026446;28;20024;-64
2023/08/16 04:10:45;;;;;;;13.77;8.38;;;;;;;-142.75;100.00;76869.50;5026871;28;20028;-64
2023/08/16 04:13:10;;;;;;;14.57;9.02;;;;;;;-142.75;100.00;76859.66;5026323;28;20029;-64
2023/08/16 04:15:35;;;;;;;15.75;8.93;;;;;;;-142.75;100.00;76865.56;5026317;28;20552;-63
2023/08/16 04:18:01;;;;;;;14.65;9.10;;;;;;;-142.75;100.00;76867.53;5026216;28;20025;-64
2023/08/16 04:20:26;;;;;;;16.15;9.38;;;;;;;-142.75;100.00;76857.69;5026725;28;20472;-63
2023/08/16 04:22:51;;;;;;;14.20;9.82;;;;;;;-142.75;100.00;76869.50;5026388;28;20116;-64
2023/08/16 04:25:17;;;;;;;14.18;9.18;;;;;;;-142.75;100.00;76873.44;5025951;28;20033;-64
2023/08/16 04:27:42;;;;;;;13.70;8.60;;;;;;;-142.75;100.00;76871.47;5026076;28;20507;-63
2023/08/16 04:30:09;;;;;;;13.95;8.90;;;;;;;-142.75;100.00;76875.41;5025970;28;20026;-64
2023/08/16 04:32:35;;;;;;;14.63;8.30;;;;;;;-142.75;100.00;76885.25;5026464;28;20025;-64
2023/08/16 04:35:00;;;;;;;13.60;8.95;;;;;;;-142.75;100.00;76883.28;5026071;28;20029;-63
2023/08/16 04:37:26;;;;;;;12.10;7.93;;;;;;;-142.75;100.00;76877.38;5026205;28;20048;-63
2023/08/16 04:39:51;;;;;;;11.85;8.40;;;;;;;-142.75;100.00;76877.38;5026231;28;20104;-63
2023/08/16 04:42:16;;;;;;;11.15;7.03;;;;;;;-142.75;100.00;76879.34;5026335;28;20104;-64
2023/08/16 04:44:42;;;;;;;10.07;6.57;;;;;;;-142.75;100.00;76879.34;5025644;28;20053;-64
2023/08/16 04:47:07;;;;;;;9.02;5.68;;;;;;;-142.75;100.00;76877.38;5026322;28;20025;-64
2023/08/16 04:49:33;;;;;;;10.50;5.60;;;;;;;-142.75;100.00;76873.44;5026360;28;20489;-63
2023/08/16 04:51:58;;;;;;;5.95;3.85;;;;;;;-142.75;100.00;76873.44;5025844;28;20017;-63
2023/08/16 04:54:24;;;;;;;7.35;5.25;;;;;;;-142.75;100.00;76873.44;5025220;28;20083;-63
2023/08/16 04:56:50;;;;;;;7.22;4.97;;;;;;;-142.75;100.00;76867.53;5025344;28;20039;-63
2023/08/16 04:59:18;;;;;;;11.02;6.80;;;;;;;-142.75;100.00;76853.75;5025455;28;20520;-63
2023/08/16 05:01:44;;;;;;;11.40;7.70;;;;;;;-142.75;100.00;76859.66;5025226;28;20025;-63
2023/08/16 05:04:09;;;;;;;15.20;9.05;;;;;;;-142.75;100.00;76849.81;5025139;28;20040;-63
2023/08/16 05:06:36;;;;;;;11.30;7.75;;;;;;;-142.75;100.00;76845.88;5044826;28;20445;-64
2023/08/16 05:09:02;;;;;;;12.90;7.43;;;;;;;-142.75;100.00;76845.88;5023599;28;20515;-63
2023/08/16 05:11:28;;;;;;;12.27;8.32;;;;;;;-142.75;100.00;76845.88;5025714;28;20509;-63
2023/08/16 05:13:53;;;;;;;13.73;8.20;;;;;;;-142.75;100.00;76832.09;5025589;28;20025;-63
2023/08/16 05:16:19;;;;;;;15.68;9.00;;;;;;;-142.75;100.00;76818.31;5025658;28;20080;-63
2023/08/16 05:18:44;;;;;;;10.05;6.85;;;;;;;-142.75;100.00;76802.56;5025566;28;20463;-63
2023/08/16 05:21:09;;;;;;;10.68;7.30;;;;;;;-142.75;100.00;76826.19;5025966;28;20029;-63
2023/08/16 05:23:35;;;;;;;10.88;7.72;;;;;;;-142.75;100.00;76806.50;5023268;28;20029;-63
2023/08/16 05:26:00;;;;;;;10.30;5.18;;;;;;;-142.75;100.00;76806.50;5025130;28;20546;-63
2023/08/16 05:28:26;;;;;;;11.10;6.60;;;;;;;-142.75;100.00;76796.69;5022048;28;20672;-63
2023/08/16 05:30:51;;;;;;;9.70;6.05;;;;;;;-142.75;100.00;76804.53;5030019;28;20025;-63
2023/08/16 05:33:17;;;;;;;9.90;6.10;;;;;;;-142.75;100.00;76796.69;5035570;28;20104;-63
2023/08/16 05:35:43;;;;;;;8.48;5.85;;;;;;;-142.75;100.00;76788.81;5043193;28;20032;-63
2023/08/16 05:38:08;;;;;;;10.52;6.70;;;;;;;-142.75;100.00;76784.88;5044518;28;20021;-63
2023/08/16 05:40:33;;;;;;;10.68;7.18;;;;;;;-142.75;100.00;76778.97;5043687;28;20044;-63
2023/08/16 05:42:59;;;;;;;13.57;8.68;;;;;;;-142.75;100.00;76784.88;5044765;28;20032;-63
2023/08/16 05:45:27;;;;;;;12.43;8.20;;;;;;;-142.75;100.00;76775.03;5044730;28;20162;-63
2023/08/16 05:47:55;;;;;;;12.52;8.55;;;;;;;-142.75;100.00;76765.19;5044883;28;20020;-64
2023/08/16 05:50:21;;;;;;;13.10;7.97;;;;;;;-142.75;100.00;76747.47;5045930;28;20027;-64
2023/08/16 05:52:47;;;;;;;11.18;8.15;;;;;;;-142.75;100.00;76755.34;5044436;28;20017;-63
2023/08/16 05:55:12;;;;;;;11.25;7.82;;;;;;;-142.75;100.00;76747.47;5044147;28;20025;-63
2023/08/16 05:57:37;;;;;;;14.10;8.10;;;;;;;-142.75;100.00;76749.44;5044690;28;20557;-63
2023/08/16 06:00:03;;;;;;;16.05;8.75;;;;;;;-142.75;100.00;76755.34;5044897;28;20025;-63
2023/08/16 06:02:28;;;;;;;13.20;8.32;;;;;;;-142.75;100.00;76747.47;5029095;28;20022;-64
2023/08/16 06:04:54;;;;;;;11.75;7.40;;;;;;;-142.75;100.00;76731.72;5024519;28;20032;-64
2023/08/16 06:07:20;;;;;;;12.95;8.02;;;;;;;-142.75;100.00;76710.06;5022972;28;20390;-64
2023/08/16 06:09:46;;;;;;;12.43;7.40;;;;;;;-142.75;100.00;76700.22;5024716;28;20032;-63
2023/08/16 06:12:12;;;;;;;10.93;7.32;;;;;;;-142.75;100.00;76719.91;5025081;28;20018;-64
2023/08/16 06:14:37;;;;;;;9.60;6.88;;;;;;;-142.75;100.00;76696.28;5024402;28;20547;-64
2023/08/16 06:17:03;;;;;;;10.18;7.53;;;;;;;-142.75;100.00;76688.41;5023240;28;20025;-64
2023/08/16 06:19:28;;;;;;;11.40;7.30;;;;;;;-142.75;100.00;76684.47;5025019;28;20037;-63
2023/08/16 06:21:54;;;;;;;12.32;7.35;;;;;;;-142.75;100.00;76704.16;5025915;28;20068;-64
2023/08/16 06:24:19;;;;;;;14.23;8.05;;;;;;;-142.75;100.00;76692.34;5046287;28;20064;-64
2023/08/16 06:26:45;;;;;;;10.50;7.57;;;;;;;-142.75;100.00;76684.47;5048444;28;20063;-64
2023/08/16 06:29:10;;;;;;;12.73;8.55;;;;;;;-142.75;100.00;76652.97;5048435;28;20446;-64
2023/08/16 06:31:36;;;;;;;11.57;8.00;;;;;;;-142.75;100.00;76645.09;5047904;28;20032;-64
2023/08/16 06:34:01;;;;;;;11.57;8.00;;;;;;;-142.75;100.00;76619.50;5046730;28;20239;-64
2023/08/16 06:36:27;;;;;;;10.90;7.00;;;;;;;-142.75;100.00;76597.84;5047754;28;20174;-63
2023/08/16 06:38:53;;;;;;;11.65;7.20;;;;;;;-142.75;100.00;76599.81;5047745;28;20048;-63
2023/08/16 06:41:19;;;;;;;9.63;7.55;;;;;;;-142.75;100.00;76617.53;5035124;28;20112;-64
2023/08/16 06:43:44;;;;;;;12.75;7.20;;;;;;;-142.75;100.00;76619.50;5029165;28;20071;-64
2023/08/16 06:46:10;;;;;;;10.38;6.00;;;;;;;-142.75;100.00;76619.50;5028250;28;20033;-63
2023/08/16 06:48:35;;;;;;;8.07;5.90;;;;;;;-142.75;100.00;76605.72;5027720;28;20369;-64
2023/08/16 06:51:00;;;;;;;8.95;6.60;;;;;;;-142.75;100.00;76591.94;5027908;28;20037;-64
2023/08/16 06:53:27;;;;;;;11.75;6.45;;;;;;;-142.75;100.00;76584.06;5026207;28;20025;-64
2023/08/16 06:55:55;;;;;;;11.90;6.85;;;;;;;-142.75;100.00;76568.31;5028389;28;20040;-64
2023/08/16 06:58:21;;;;;;;10.55;6.50;;;;;;;-142.75;100.00;76527.00;5034986;28;20021;-64
2023/08/16 07:00:47;;;;;;;12.27;6.60;;;;;;;-142.75;100.00;76513.22;5030769;28;20029;-66
2023/08/16 07:03:13;;;;;;;10.27;6.22;;;;;;;-142.75;100.00;76499.44;5027255;28;20022;-66
2023/08/16 07:05:39;;;;;;;10.82;6.68;;;;;;;-142.75;100.00;76467.94;5031105;28;20706;-63
2023/08/16 07:08:05;;;;;;;14.18;5.97;;;;;;;-142.75;100.00;76440.38;5029737;28;20471;-63
2023/08/16 07:10:30;;;;;;;10.52;5.80;;;;;;;-142.75;100.00;76440.38;5026641;28;20030;-63
2023/08/16 07:12:56;;;;;;;10.20;5.95;;;;;;;-142.75;100.00;76446.28;5039056;28;20043;-63
2023/08/16 07:15:21;;;;;;;6.32;4.93;;;;;;;-142.75;100.00;76422.66;5025454;28;20025;-63
2023/08/16 07:17:47;;;;;;;8.00;5.80;;;;;;;-142.75;100.00;76432.50;5024139;28;20025;-63
2023/08/16 07:20:12;;;;;;;8.18;5.28;;;;;;;-142.75;100.00;76416.75;5036868;28;20028;-63
2023/08/16 07:22:38;;;;;;;7.25;4.45;;;;;;;-142.75;100.00;76416.75;5033787;28;20018;-64
2023/08/16 07:25:07;;;;;;;8.25;4.78;;;;;;;-142.75;100.00;76406.91;5037780;28;20032;-63
2023/08/16 07:27:33;;;;;;;7.68;4.57;;;;;;;-142.75;100.00;76430.53;5027369;28;20082;-64
2023/08/16 07:29:59;;;;;;;6.10;4.85;;;;;;;-142.75;100.00;76438.41;5027676;28;20033;-63
2023/08/16 07:32:24;;;;;;;9.50;4.78;;;;;;;-142.75;100.00;76440.38;5030323;28;20025;-64
2023/08/16 07:34:50;;;;;;;8.27;4.70;;;;;;;-142.75;100.00;76436.44;5024453;28;20113;-64
2023/08/16 07:37:15;;;;;;;8.13;5.25;;;;;;;-142.75;100.00;76418.72;5026442;28;20028;-63
2023/08/16 07:39:41;;;;;;;8.85;4.68;;;;;;;-142.75;100.00;76444.31;5026729;28;20481;-64
2023/08/16 07:42:07;;;;;;;5.35;4.03;;;;;;;-142.75;100.00;76436.44;5025378;28;20030;-64
2023/08/16 07:44:36;;;;;;;7.43;4.18;;;;;;;-142.75;100.00;76432.50;5027158;28;20033;-63
2023/08/16 07:47:02;;;;;;;8.27;4.97;;;;;;;-142.75;100.00;76408.88;5026454;28;20396;-63
2023/08/16 07:49:28;;;;;;;6.90;4.20;;;;;;;-142.75;100.00;76375.41;5026108;28;20052;-63
2023/08/16 07:51:57;;;;;;;6.45;4.63;;;;;;;-142.75;100.00;76343.94;5026585;28;20049;-64
2023/08/16 07:54:23;;;;;;;12.00;4.63;;;;;;;-142.75;100.00;76345.91;5025814;28;20055;-64
2023/08/16 07:56:49;;;;;;;8.30;4.35;;;;;;;-142.75;100.00;76338.03;5025034;28;20053;-64
2023/08/16 07:59:14;;;;;;;6.90;3.97;;;;;;;-142.75;100.00;76316.38;5026037;28;20080;-64
2023/08/16 08:01:40;;;;;;;5.88;4.38;;;;;;;-142.75;100.00;76298.66;5026232;28;20021;-64
2023/08/16 08:04:06;;;;;;;7.50;3.50;;;;;;;-142.75;100.00;76267.16;5026248;28;20101;-64
2023/08/16 08:06:32;;;;;;;6.60;3.45;;;;;;;-142.75;100.00;76251.41;5026994;28;20029;-64
2023/08/16 08:08:57;;;;;;;5.68;3.08;;;;;;;-142.75;100.00;76253.38;5029081;28;20021;-65
2023/08/16 08:11:22;;;;;;;5.68;3.13;;;;;;;-142.75;100.00;76241.56;5029162;28;20028;-64
2023/08/16 08:13:48;;;;;;;5.55;2.33;;;;;;;-142.75;100.00;76255.34;5028023;28;20036;-66
2023/08/16 08:16:13;;;;;;;4.47;1.98;;;;;;;-142.75;100.00;76255.34;5028826;28;20022;-66
2023/08/16 08:18:39;;;;;;;3.30;1.90;;;;;;;-142.75;100.00;76251.41;5028740;28;20484;-66
2023/08/16 08:21:04;;;;;;;3.92;1.98;;;;;;;-142.75;100.00;76253.38;5029194;28;20069;-65
2023/08/16 08:23:29;;;;;;;4.15;2.10;;;;;;;-142.75;100.00;76239.59;5028018;28;20408;-65
2023/08/16 08:25:55;;;;;;;4.40;2.22;;;;;;;-142.75;100.00;76229.75;5027678;28;20061;-66
2023/08/16 08:28:22;;;;;;;3.70;2.00;;;;;;;-142.75;100.00;76217.94;5028668;28;20025;-66
2023/08/16 08:30:47;;;;;;;3.67;1.70;;;;;;;-142.75;100.00;76180.56;5028722;28;20029;-65
2023/08/16 08:33:13;;;;;;;2.30;1.55;;;;;;;-142.75;100.00;76194.34;5029074;28;20469;-64
2023/08/16 08:35:38;;;;;;;3.92;1.50;;;;;;;-142.75;100.00;76176.63;5028886;28;20040;-64
2023/08/16 08:38:04;;;;;;;3.33;1.50;;;;;;;-142.75;100.00;76178.59;5029080;28;20495;-64
2023/08/16 08:40:32;;;;;;;3.08;1.40;;;;;;;-142.75;100.00;76151.03;5028363;28;20056;-65
2023/08/16 08:42:59;;;;;;;3.45;1.40;;;;;;;-142.75;100.00;76145.13;5028060;28;20026;-65
2023/08/16 08:45:26;;;;;;;3.85;1.10;;;;;;;-142.75;100.00;76156.94;5028155;28;20403;-65
2023/08/16 08:47:55;;;;;;;5.75;1.35;;;;;;;-142.75;100.00;76160.88;5027394;28;20021;-66
2023/08/16 08:50:20;;;;;;;4.32;1.40;;;;;;;-142.75;100.00;76164.81;5028439;28;20056;-66
2023/08/16 08:52:51;;;;;;;3.25;1.25;;;;;;;-142.75;100.00;76107.72;5028138;28;20021;-66
2023/08/16 08:55:17;;;;;;;7.20;1.58;;;;;;;-142.75;100.00;76125.44;5027636;28;20017;-67
2023/08/16 08:57:50;;;;;;;2.95;1.45;;;;;;;-142.75;100.00;76078.19;5028019;28;20021;-67
2023/08/16 09:00:19;;;;;;;3.85;1.30;;;;;;;-142.75;100.00;76074.25;5028230;28;20022;-65
2023/08/16 09:02:46;;;;;;;5.22;1.60;;;;;;;-142.75;100.00;76064.44;5026943;28;20052;-66
2023/08/16 09:05:13;;;;;;;2.50;1.25;;;;;;;-142.75;100.00;76034.91;5028076;28;20029;-66
2023/08/16 09:07:41;;;;;;;3.10;1.42;;;;;;;-142.75;100.00;76048.69;5028951;28;20049;-65
2023/08/16 09:10:08;;;;;;;4.30;1.63;;;;;;;-142.75;100.00;76042.78;5027025;28;20032;-65
2023/08/16 09:12:34;;;;;;;6.35;1.70;;;;;;;-142.75;100.00;76023.09;5027956;28;20036;-65
2023/08/16 09:14:59;;;;;;;2.45;0.80;;;;;;;-142.75;95.50;76036.88;5027912;28;20033;-65
2023/08/16 09:17:25;;;;;;;2.97;1.33;;;;;;;-142.75;96.58;76054.59;5027991;28;20021;-62
2023/08/16 09:19:50;;;;;;;2.80;1.17;;;;;;;-142.75;100.00;76044.75;5026467;28;20108;-64
2023/08/16 09:22:16;;;;;;;2.80;1.17;;;;;;;-142.75;100.00;76036.88;5027539;28;20370;-63
2023/08/16 09:24:45;;;;;;;3.13;1.10;;;;;;;-142.75;95.86;76027.03;5027679;28;20040;-65
2023/08/16 09:27:10;;;;;;;3.10;1.10;;;;;;;-142.75;93.25;76040.81;5027917;28;20429;-64
2023/08/16 09:29:39;;;;;;;2.70;0.88;;;;;;;-142.75;92.34;76001.44;5027392;28;20025;-67
2023/08/16 09:32:07;;;;;;;2.20;0.82;;;;;;;-142.75;90.23;75987.66;5027491;28;20128;-63
2023/08/16 09:34:32;;;;;;;2.17;0.90;;;;;;;-142.75;91.49;75987.66;5027191;28;20618;-62
2023/08/16 09:37:00;;;;;;;4.05;0.85;;;;;;;-142.75;91.72;75940.44;5027594;28;20231;-63
2023/08/16 09:39:26;;;;;;;4.60;1.25;;;;;;;-142.75;90.48;75932.56;5027558;28;20037;-63
2023/08/16 09:41:52;;;;;;;4.60;0.80;;;;;;;-142.75;88.27;75908.94;5027005;28;20485;-63
2023/08/16 09:44:18;;;;;;;2.42;0.85;;;;;;;-142.75;84.89;75910.91;5027587;28;20069;-63
2023/08/16 09:46:45;;;;;;;3.15;0.90;;;;;;;-142.75;84.00;75914.84;5026294;28;20637;-63
2023/08/16 09:49:10;;;;;;;1.95;0.80;;;;;;;-142.75;84.56;75889.25;5027470;28;20081;-62
2023/08/16 09:51:38;;;;;;;2.63;1.00;;;;;;;-142.75;85.12;75905.00;5027381;28;20049;-63
2023/08/16 09:54:13;;;;;;;2.60;1.00;;;;;;;-142.75;85.52;75897.13;5027042;28;20090;-63
2023/08/16 09:56:39;;;;;;;3.08;0.77;;;;;;;-142.75;85.35;75899.09;5027512;28;20025;-63
2023/08/16 09:59:07;;;;;;;3.15;0.80;;;;;;;-142.75;82.88;75893.19;5031186;28;21340;-63
2023/08/16 10:01:33;;;;;;;1.85;0.82;;;;;;;-142.75;83.11;75899.09;5031810;28;20032;-63
2023/08/16 10:03:58;;;;;;;2.40;0.70;;;;;;;-142.75;85.42;75905.00;5031207;28;20033;-63
2023/08/16 10:06:24;;;;;;;3.33;0.80;;;;;;;-142.75;83.52;75930.59;5031489;28;20048;-63
2023/08/16 10:08:52;;;;;;;3.35;0.75;;;;;;;-142.75;82.51;75952.25;5032112;28;20040;-63
2023/08/16 10:11:18;;;;;;;4.00;0.90;;;;;;;-142.75;86.61;75908.94;5031644;28;20021;-63
2023/08/16 10:13:44;;;;;;;2.10;0.93;;;;;;;-142.75;84.74;75924.69;5031109;28;20484;-63
2023/08/16 10:16:13;;;;;;;3.05;0.95;;;;;;;-142.75;85.77;75889.25;5031034;28;20111;-63
2023/08/16 10:18:42;;;;;;;3.90;1.35;;;;;;;-142.75;84.47;75905.00;5031153;28;20501;-63
2023/08/16 10:21:11;;;;;;;2.25;0.93;;;;;;;-142.75;84.33;75903.03;5030929;28;20097;-63
2023/08/16 10:23:40;;;;;;;2.72;0.90;;;;;;;-142.75;83.86;75912.88;5030436;28;20037;-62
2023/08/16 10:26:19;;;;;;;2.08;0.80;;;;;;;-142.75;82.17;75887.28;5030957;28;20075;-62
2023/08/16 10:28:49;;;;;;;2.78;1.02;;;;;;;-142.75;81.45;75861.69;5031364;28;20459;-62
2023/08/16 10:31:19;;;;;;;2.05;0.80;;;;;;;-142.75;82.60;75820.38;5030912;28;20023;-62
2023/08/16 10:33:47;;;;;;;2.80;0.82;;;;;;;-142.75;83.26;75836.13;5030725;28;20025;-63
2023/08/16 10:36:14;;;;;;;3.17;0.93;;;;;;;-142.75;81.34;75822.34;5031255;28;20449;-62
2023/08/16 10:38:41;;;;;;;4.35;1.05;;;;;;;-142.75;79.65;75810.53;5031571;28;20044;-63
2023/08/16 10:41:14;;;;;;;2.97;1.00;;;;;;;-142.75;76.61;75810.53;5030514;28;20022;-63
2023/08/16 10:43:46;;;;;;;2.47;0.88;;;;;;;-142.75;77.14;75881.38;5030552;28;20453;-63
2023/08/16 10:46:11;;;;;;;2.63;0.80;;;;;;;-142.75;79.80;75883.34;5030571;28;20021;-63
2023/08/16 10:48:37;;;;;;;4.00;0.70;;;;;;;-142.75;78.26;75869.56;5030330;28;20051;-63
2023/08/16 10:51:04;;;;;;;3.40;1.00;;;;;;;-142.75;78.11;75857.78;5030608;28;20334;-62
2023/08/16 10:53:32;;;;;;;1.83;0.70;;;;;;;-142.75;77.56;75885.31;5029144;28;20025;-63
2023/08/16 10:55:57;;;;;;;2.45;0.90;;;;;;;-142.75;76.52;75893.19;5030414;28;20029;-62
2023/08/16 10:58:23;;;;;;;2.28;0.77;;;;;;;-142.75;79.16;75877.44;5030631;28;20033;-63
2023/08/16 11:00:59;;;;;;;3.53;0.70;;;;;;;-142.75;81.37;75844.00;5030343;28;20029;-62
2023/08/16 11:03:32;;;;;;;2.40;0.70;;;;;;;-142.75;81.30;75796.75;5030062;28;20248;-63